Time;durP1;ratioP1;P1;durP2;ratioP2;P2;SDS_P1;SDS_P2;PMS_P1;PMS_P2;Temp;Humidity;BMP_temperature;BMP_pressure;BME280_temperature;BME280_humidity;BME280_pressure;Samples;Min_cycle;Max_cycle;Signal;HPM_P1;HPM_P2
2020/12/22 00:01:13;;;;;;;2.63;0.50;;;;;;;8.23;100.00;100127.38;4950175;28;20221;-75
2020/12/22 00:03:39;;;;;;;2.07;0.33;;;;;;;8.21;100.00;100118.91;4960853;28;20442;-74
2020/12/22 00:06:05;;;;;;;1.93;0.30;;;;;;;8.21;100.00;100116.22;4968477;28;20472;-75
2020/12/22 00:08:30;;;;;;;1.37;0.23;;;;;;;8.14;100.00;100108.03;4940039;28;21060;-75
2020/12/22 00:10:56;;;;;;;1.97;0.37;;;;;;;8.11;100.00;100107.94;4964095;28;20358;-74
2020/12/22 00:13:21;;;;;;;1.20;0.10;;;;;;;8.17;100.00;100096.59;4930506;28;20193;-75
2020/12/22 00:15:47;;;;;;;1.47;0.27;;;;;;;8.10;100.00;100098.34;4943025;28;20697;-75
2020/12/22 00:18:14;;;;;;;1.40;0.17;;;;;;;8.11;100.00;100098.00;4966825;28;20193;-74
2020/12/22 00:20:39;;;;;;;2.27;0.67;;;;;;;8.10;100.00;100088.41;4967804;28;20647;-74
2020/12/22 00:23:05;;;;;;;1.60;0.30;;;;;;;8.12;100.00;100082.69;4962105;28;20448;-75
2020/12/22 00:25:30;;;;;;;1.30;0.20;;;;;;;8.06;100.00;100092.91;4970040;28;20746;-75
2020/12/22 00:27:56;;;;;;;1.50;0.30;;;;;;;8.01;100.00;100073.66;4969116;28;20240;-75
2020/12/22 00:30:21;;;;;;;2.60;0.50;;;;;;;8.01;100.00;100069.06;4967233;28;20209;-75
2020/12/22 00:32:47;;;;;;;1.57;0.30;;;;;;;8.13;100.00;100062.78;4951725;28;20266;-75
2020/12/22 00:35:12;;;;;;;1.70;0.37;;;;;;;8.11;100.00;100055.09;4970046;28;20667;-75
2020/12/22 00:37:38;;;;;;;4.90;0.70;;;;;;;8.11;100.00;100063.13;4970658;28;20193;-78
2020/12/22 00:40:04;;;;;;;1.73;0.50;;;;;;;8.14;100.00;100064.34;4949881;28;20182;-74
2020/12/22 00:42:31;;;;;;;1.53;0.30;;;;;;;8.09;100.00;100056.59;4968067;28;20321;-75
2020/12/22 00:44:58;;;;;;;1.60;0.30;;;;;;;8.14;100.00;100029.50;4950105;28;20881;-75
2020/12/22 00:47:24;;;;;;;2.60;0.57;;;;;;;8.14;100.00;100032.16;4968654;28;20430;-74
2020/12/22 00:49:50;;;;;;;1.90;0.40;;;;;;;8.14;100.00;100038.31;4942522;28;20477;-75
2020/12/22 00:52:16;;;;;;;1.70;0.47;;;;;;;8.22;100.00;100033.88;4950161;28;20438;-74
2020/12/22 00:54:42;;;;;;;1.60;0.20;;;;;;;8.21;100.00;100032.28;4966100;28;20461;-75
2020/12/22 00:57:09;;;;;;;2.30;0.50;;;;;;;8.26;100.00;100024.00;4953294;28;20433;-74
2020/12/22 01:00:06;;;;;;;2.20;0.57;;;;;;;8.30;100.00;100024.06;4941859;28;20959;-75
2020/12/22 01:02:33;;;;;;;1.30;0.30;;;;;;;8.15;100.00;100021.09;4959088;28;20452;-75
2020/12/22 01:04:59;;;;;;;1.27;0.23;;;;;;;8.09;100.00;100014.44;4954774;28;20477;-74
2020/12/22 01:07:24;;;;;;;1.77;0.37;;;;;;;8.17;100.00;100012.69;4973011;28;21006;-74
2020/12/22 01:09:50;;;;;;;1.90;0.40;;;;;;;8.23;100.00;100004.00;4968727;28;20213;-74
2020/12/22 01:12:15;;;;;;;2.10;0.50;;;;;;;8.33;100.00;100016.09;4964121;28;20194;-75
2020/12/22 01:14:41;;;;;;;1.60;0.33;;;;;;;8.19;100.00;100002.38;4952269;28;20683;-75
2020/12/22 01:17:06;;;;;;;1.40;0.20;;;;;;;8.30;100.00;100008.75;4973973;28;20210;-75
2020/12/22 01:19:32;;;;;;;1.37;0.20;;;;;;;8.34;100.00;100012.28;4964383;28;20266;-75
2020/12/22 01:21:57;;;;;;;1.40;0.20;;;;;;;8.37;100.00;100008.88;4973121;28;20186;-75
2020/12/22 01:24:23;;;;;;;1.70;0.27;;;;;;;8.40;100.00;99994.75;4956293;28;20218;-75
2020/12/22 01:26:50;;;;;;;2.57;0.40;;;;;;;8.50;100.00;99996.06;4957671;28;20843;-75
2020/12/22 01:29:16;;;;;;;1.83;0.27;;;;;;;8.32;100.00;99987.72;4971526;28;20206;-74
2020/12/22 01:31:42;;;;;;;1.40;0.37;;;;;;;8.22;100.00;99988.28;4970098;28;20500;-75
2020/12/22 01:34:07;;;;;;;1.40;0.20;;;;;;;8.38;100.00;99980.91;4947393;28;20188;-75
2020/12/22 01:36:33;;;;;;;2.00;0.20;;;;;;;8.47;100.00;99975.34;4973903;28;20245;-75
2020/12/22 01:39:01;;;;;;;1.33;0.17;;;;;;;8.54;100.00;99989.63;4971926;28;20568;-75
2020/12/22 01:41:33;;;;;;;1.50;0.20;;;;;;;8.52;100.00;99973.13;4967186;28;20430;-75
2020/12/22 01:44:09;;;;;;;1.80;0.30;;;;;;;8.49;100.00;99973.84;4966846;28;20196;-79
2020/12/22 01:46:37;;;;;;;1.30;0.10;;;;;;;8.33;100.00;99975.84;4984523;28;20460;-79
2020/12/22 01:49:07;;;;;;;1.40;0.20;;;;;;;8.55;100.00;99963.59;4976776;28;20479;-77
2020/12/22 01:51:33;;;;;;;1.60;0.30;;;;;;;8.52;100.00;99957.03;4974464;28;20445;-77
2020/12/22 01:54:00;;;;;;;2.30;0.30;;;;;;;8.58;100.00;99960.97;4968854;28;20465;-77
2020/12/22 01:56:26;;;;;;;2.90;1.10;;;;;;;8.65;100.00;99954.94;4976980;28;20532;-76
2020/12/22 01:58:52;;;;;;;1.10;0.10;;;;;;;8.46;100.00;99947.72;4955447;28;20477;-76
2020/12/22 02:01:17;;;;;;;1.40;0.20;;;;;;;8.72;100.00;99938.94;4938181;28;20528;-77
2020/12/22 02:03:44;;;;;;;1.83;0.47;;;;;;;8.79;100.00;99947.09;4971023;28;20665;-77
2020/12/22 02:06:10;;;;;;;1.30;0.30;;;;;;;8.76;100.00;99937.88;4972101;28;20293;-76
2020/12/22 02:08:35;;;;;;;1.50;0.20;;;;;;;8.72;100.00;99937.06;4955410;29;20609;-77
2020/12/22 02:11:01;;;;;;;1.30;0.20;;;;;;;8.72;100.00;99928.22;4961600;28;20195;-77
2020/12/22 02:13:26;;;;;;;2.20;0.20;;;;;;;8.74;100.00;99925.94;4977830;28;20182;-77
2020/12/22 02:15:52;;;;;;;1.50;0.20;;;;;;;8.74;100.00;99916.00;4962857;28;20202;-77
2020/12/22 02:18:17;;;;;;;1.53;0.20;;;;;;;8.67;100.00;99923.91;4972412;28;20179;-77
2020/12/22 02:20:43;;;;;;;1.30;0.20;;;;;;;8.73;100.00;99916.34;4969818;28;20596;-77
2020/12/22 02:23:11;;;;;;;1.60;0.10;;;;;;;8.74;100.00;99909.84;4975688;28;20193;-77
2020/12/22 02:25:45;;;;;;;1.23;0.20;;;;;;;8.86;100.00;99912.34;4975814;28;20454;-80
2020/12/22 02:28:10;;;;;;;1.20;0.13;;;;;;;8.81;100.00;99902.66;4976414;28;20466;-76
2020/12/22 02:30:36;;;;;;;2.13;0.20;;;;;;;8.80;100.00;99897.66;4972423;28;20832;-76
2020/12/22 02:33:02;;;;;;;1.20;0.10;;;;;;;8.75;100.00;99900.66;4972992;28;20873;-78
2020/12/22 02:35:29;;;;;;;1.50;0.23;;;;;;;8.78;100.00;99889.19;4966661;28;20737;-77
2020/12/22 02:37:54;;;;;;;1.30;0.20;;;;;;;8.98;100.00;99891.41;4970910;28;20882;-77
2020/12/22 02:40:20;;;;;;;1.40;0.20;;;;;;;8.79;100.00;99886.16;4963812;28;20452;-77
2020/12/22 02:42:46;;;;;;;1.67;0.30;;;;;;;9.02;100.00;99881.50;4970374;28;20238;-77
2020/12/22 02:45:11;;;;;;;1.80;0.20;;;;;;;9.08;100.00;99876.56;4965952;28;20222;-77
2020/12/22 02:47:37;;;;;;;1.53;0.27;;;;;;;8.98;100.00;99869.94;4978915;28;20183;-77
2020/12/22 02:50:02;;;;;;;1.33;0.20;;;;;;;9.16;100.00;99862.09;4977315;28;20233;-77
2020/12/22 02:52:30;;;;;;;1.67;0.20;;;;;;;8.98;100.00;99861.13;4978304;28;20217;-77
2020/12/22 02:54:56;;;;;;;1.43;0.20;;;;;;;9.00;100.00;99848.09;4960649;28;20558;-77
2020/12/22 02:57:21;;;;;;;2.10;0.30;;;;;;;8.93;100.00;99854.13;4957957;28;20448;-77
2020/12/22 02:59:47;;;;;;;1.60;0.20;;;;;;;9.06;100.00;99852.00;4978874;28;20220;-77
2020/12/22 03:02:12;;;;;;;1.40;0.17;;;;;;;9.23;100.00;99848.00;4972649;28;20186;-77
2020/12/22 03:04:38;;;;;;;1.40;0.20;;;;;;;9.13;100.00;99844.03;4960053;28;20779;-78
2020/12/22 03:07:04;;;;;;;1.40;0.20;;;;;;;9.22;100.00;99844.53;4968761;28;20699;-76
2020/12/22 03:09:29;;;;;;;1.40;0.20;;;;;;;9.26;100.00;99833.81;4971181;28;20238;-77
2020/12/22 03:11:55;;;;;;;1.20;0.20;;;;;;;9.17;100.00;99836.03;4971424;28;20517;-76
2020/12/22 03:14:20;;;;;;;2.00;0.27;;;;;;;9.23;100.00;99832.66;4974299;28;20175;-77
2020/12/22 03:16:45;;;;;;;1.80;0.30;;;;;;;9.31;100.00;99831.59;4978216;28;20185;-77
2020/12/22 03:19:11;;;;;;;1.33;0.17;;;;;;;9.22;100.00;99822.25;4955346;28;20674;-77
2020/12/22 03:21:36;;;;;;;1.33;0.13;;;;;;;9.38;100.00;99822.84;4960472;28;20191;-78
2020/12/22 03:24:02;;;;;;;1.20;0.10;;;;;;;9.38;100.00;99815.56;4978569;28;20250;-77
2020/12/22 03:26:27;;;;;;;1.37;0.27;;;;;;;9.47;100.00;99802.59;4974615;28;20190;-77
2020/12/22 03:28:53;;;;;;;1.20;0.10;;;;;;;9.42;100.00;99796.78;4976856;28;20213;-76
2020/12/22 03:31:18;;;;;;;1.10;0.10;;;;;;;9.50;100.00;99801.88;4973099;28;20198;-77
2020/12/22 03:33:44;;;;;;;2.00;0.30;;;;;;;9.31;100.00;99788.59;4976038;28;20213;-77
2020/12/22 03:36:09;;;;;;;1.00;0.10;;;;;;;9.27;100.00;99781.66;4968249;28;20203;-77
2020/12/22 03:38:35;;;;;;;1.30;0.20;;;;;;;9.39;100.00;99778.72;4957051;28;20174;-77
2020/12/22 03:41:00;;;;;;;1.30;0.20;;;;;;;9.31;100.00;99777.09;4957811;28;20194;-76
2020/12/22 03:43:26;;;;;;;1.30;0.10;;;;;;;9.43;100.00;99774.91;4977965;28;20187;-76
2020/12/22 03:45:55;;;;;;;3.00;0.30;;;;;;;9.50;100.00;99764.25;4966404;28;20206;-76
2020/12/22 03:48:21;;;;;;;1.10;0.10;;;;;;;9.41;100.00;99765.66;4959147;28;20225;-78
2020/12/22 03:50:46;;;;;;;1.37;0.13;;;;;;;9.39;100.00;99758.00;4973216;28;20446;-77
2020/12/22 03:53:12;;;;;;;1.17;0.10;;;;;;;9.49;100.00;99749.25;4946526;28;20207;-77
2020/12/22 03:55:37;;;;;;;1.40;0.10;;;;;;;9.65;100.00;99739.06;4971649;28;20722;-76
2020/12/22 03:58:03;;;;;;;1.20;0.10;;;;;;;9.67;100.00;99731.41;4956500;28;20190;-77
2020/12/22 04:00:28;;;;;;;1.20;0.20;;;;;;;9.71;100.00;99734.88;4975298;28;20212;-77
2020/12/22 04:02:54;;;;;;;1.20;0.10;;;;;;;9.64;100.00;99731.38;4976660;28;20170;-77
2020/12/22 04:05:19;;;;;;;1.80;0.30;;;;;;;9.57;100.00;99725.91;4955030;28;20213;-77
2020/12/22 04:07:45;;;;;;;1.17;0.17;;;;;;;9.64;100.00;99716.00;4955537;28;20197;-77
2020/12/22 04:10:10;;;;;;;1.20;0.10;;;;;;;9.45;100.00;99724.28;4956265;28;21155;-77
2020/12/22 04:12:36;;;;;;;1.63;0.20;;;;;;;9.45;100.00;99721.59;4974689;28;20187;-77
2020/12/22 04:15:03;;;;;;;1.23;0.10;;;;;;;9.59;100.00;99720.94;4971353;28;20568;-77
2020/12/22 04:17:29;;;;;;;1.23;0.10;;;;;;;9.53;100.00;99725.09;4938627;28;20190;-78
2020/12/22 04:19:54;;;;;;;1.30;0.13;;;;;;;9.60;100.00;99714.44;4969150;28;20458;-77
2020/12/22 04:22:20;;;;;;;1.20;0.10;;;;;;;9.69;100.00;99712.19;4953320;28;20195;-77
2020/12/22 04:24:45;;;;;;;1.10;0.10;;;;;;;9.73;100.00;99707.63;4972856;28;20202;-77
2020/12/22 04:27:11;;;;;;;1.10;0.10;;;;;;;9.71;100.00;99710.69;4959422;29;20271;-78
2020/12/22 04:29:57;;;;;;;1.60;0.23;;;;;;;9.73;100.00;99713.00;4971777;28;20206;-78
2020/12/22 04:32:22;;;;;;;1.00;0.10;;;;;;;9.75;100.00;99706.13;4902136;29;20248;-77
2020/12/22 04:34:48;;;;;;;1.40;0.10;;;;;;;9.84;100.00;99705.78;4890890;29;20505;-77
2020/12/22 04:37:13;;;;;;;1.10;0.10;;;;;;;9.75;100.00;99716.09;4902681;29;20196;-77
2020/12/22 04:39:39;;;;;;;2.70;0.10;;;;;;;9.67;100.00;99714.50;4873917;29;20197;-78
2020/12/22 04:42:05;;;;;;;1.00;0.13;;;;;;;9.71;100.00;99707.22;4881347;29;20187;-78
2020/12/22 04:44:31;;;;;;;1.13;0.10;;;;;;;9.66;100.00;99702.19;4875189;29;20197;-77
2020/12/22 04:46:56;;;;;;;1.10;0.10;;;;;;;9.80;100.00;99705.00;4879405;29;20942;-78
2020/12/22 04:49:43;;;;;;;1.20;0.10;;;;;;;9.79;100.00;99706.16;4876260;29;20632;-79
2020/12/22 04:52:09;;;;;;;1.07;0.10;;;;;;;9.84;100.00;99697.72;4849792;29;20214;-79
2020/12/22 04:54:37;;;;;;;1.10;0.10;;;;;;;9.81;100.00;99693.09;4851580;29;20556;-79
2020/12/22 04:57:04;;;;;;;1.40;0.20;;;;;;;9.82;100.00;99700.00;4841595;29;20521;-80
2020/12/22 04:59:30;;;;;;;1.40;0.10;;;;;;;9.80;100.00;99691.53;4832915;29;20427;-80
2020/12/22 05:01:57;;;;;;;1.10;0.10;;;;;;;9.97;100.00;99690.91;4853271;29;20502;-80
2020/12/22 05:04:23;;;;;;;1.10;0.10;;;;;;;9.96;100.00;99690.16;4843525;29;20551;-80
2020/12/22 05:06:49;;;;;;;1.10;0.10;;;;;;;10.11;100.00;99692.94;4858407;29;21141;-79
2020/12/22 05:09:14;;;;;;;2.33;0.10;;;;;;;10.07;100.00;99679.44;4869720;29;20304;-80
2020/12/22 05:11:40;;;;;;;1.20;0.10;;;;;;;10.09;100.00;99687.91;4876887;29;20788;-80
2020/12/22 05:14:06;;;;;;;1.10;0.10;;;;;;;10.04;100.00;99680.19;4906209;29;20186;-80
2020/12/22 05:16:36;;;;;;;1.00;0.10;;;;;;;10.15;100.00;99677.59;4892612;29;20226;-80
2020/12/22 05:19:03;;;;;;;1.10;0.10;;;;;;;10.10;100.00;99680.66;4860126;29;20943;-79
2020/12/22 05:21:35;;;;;;;1.10;0.10;;;;;;;10.29;100.00;99685.75;4875556;29;20459;-77
2020/12/22 05:24:02;;;;;;;1.10;0.10;;;;;;;10.25;100.00;99685.75;4868904;29;20449;-78
2020/12/22 05:26:32;;;;;;;1.10;0.10;;;;;;;10.40;100.00;99684.66;4877717;29;20469;-79
2020/12/22 05:29:10;;;;;;;1.30;0.20;;;;;;;10.48;100.00;99691.63;4919829;28;20471;-79
2020/12/22 05:31:47;;;;;;;1.10;0.07;;;;;;;10.53;100.00;99693.94;4947797;28;20457;-78
2020/12/22 05:34:13;;;;;;;1.10;0.00;;;;;;;10.57;100.00;99697.44;4936356;28;20473;-78
2020/12/22 05:36:40;;;;;;;1.10;0.10;;;;;;;10.63;100.00;99697.84;4951481;28;20454;-77
2020/12/22 05:39:11;;;;;;;1.10;0.10;;;;;;;10.53;100.00;99691.25;4962616;28;20437;-78
2020/12/22 05:41:37;;;;;;;1.10;0.10;;;;;;;10.69;100.00;99686.34;4934698;28;20540;-78
2020/12/22 05:44:05;;;;;;;1.10;0.10;;;;;;;10.71;100.00;99685.94;4968711;28;20455;-78
2020/12/22 05:46:34;;;;;;;1.10;0.10;;;;;;;10.77;100.00;99687.13;4966405;28;21237;-78
2020/12/22 05:49:01;;;;;;;1.10;0.10;;;;;;;10.75;100.00;99692.91;4969762;28;20519;-78
2020/12/22 05:51:27;;;;;;;1.20;0.10;;;;;;;10.82;100.00;99682.13;4977997;28;20469;-79
2020/12/22 05:54:07;;;;;;;1.10;0.10;;;;;;;10.87;100.00;99681.78;4981694;28;20459;-79
2020/12/22 05:56:34;;;;;;;1.10;0.10;;;;;;;10.87;100.00;99679.09;4979257;28;20470;-79
2020/12/22 05:59:00;;;;;;;1.10;0.10;;;;;;;10.98;100.00;99678.31;4948043;28;21037;-78
2020/12/22 06:01:30;;;;;;;1.10;0.10;;;;;;;11.01;100.00;99677.59;4962498;28;20478;-78
2020/12/22 06:04:04;;;;;;;1.10;0.10;;;;;;;11.08;100.00;99672.19;4979682;28;20455;-78
2020/12/22 06:06:31;;;;;;;1.07;0.10;;;;;;;11.18;100.00;99666.84;4961240;28;20458;-77
2020/12/22 06:08:57;;;;;;;1.10;0.10;;;;;;;11.26;100.00;99673.00;4982549;28;20503;-78
2020/12/22 06:11:23;;;;;;;1.30;0.20;;;;;;;11.39;100.00;99674.97;4976598;28;20546;-79
2020/12/22 06:13:50;;;;;;;1.10;0.10;;;;;;;11.47;100.00;99667.63;4984244;28;20867;-79
2020/12/22 06:16:21;;;;;;;1.10;0.10;;;;;;;11.45;100.00;99676.13;4953116;28;20479;-79
2020/12/22 06:18:51;;;;;;;1.27;0.10;;;;;;;11.50;100.00;99688.44;4935918;28;20441;-79
2020/12/22 06:21:18;;;;;;;1.10;0.10;;;;;;;11.57;100.00;99678.44;4975193;28;20455;-79
2020/12/22 06:23:45;;;;;;;1.00;0.00;;;;;;;11.59;100.00;99678.81;4941630;28;20445;-79
2020/12/22 06:26:12;;;;;;;1.10;0.10;;;;;;;11.62;100.00;99680.75;4973000;28;20525;-78
2020/12/22 06:28:38;;;;;;;1.03;0.10;;;;;;;11.61;100.00;99691.94;4973505;28;21015;-78
2020/12/22 06:31:21;;;;;;;1.40;0.20;;;;;;;11.63;100.00;99690.38;4953277;28;20457;-79
2020/12/22 06:33:51;;;;;;;1.20;0.20;;;;;;;11.69;100.00;99693.50;4951289;28;20286;-78
2020/12/22 06:36:18;;;;;;;1.53;0.33;;;;;;;11.74;100.00;99687.72;4972388;28;21001;-79
2020/12/22 06:38:49;;;;;;;1.10;0.10;;;;;;;11.84;100.00;99680.75;4952608;28;20432;-79
2020/12/22 06:41:33;;;;;;;1.43;0.23;;;;;;;11.74;100.00;99676.91;4965693;28;20449;-78
2020/12/22 06:44:16;;;;;;;1.10;0.10;;;;;;;11.91;100.00;99692.31;4948461;28;20553;-78
2020/12/22 06:46:46;;;;;;;1.40;0.30;;;;;;;11.95;100.00;99690.38;4971720;28;20546;-78
2020/12/22 06:49:12;;;;;;;1.20;0.10;;;;;;;11.94;100.00;99688.88;4951300;28;20837;-80
2020/12/22 06:51:40;;;;;;;1.10;0.10;;;;;;;11.97;100.00;99701.56;4967858;28;20463;-78
2020/12/22 06:54:15;;;;;;;1.40;0.20;;;;;;;12.01;100.00;99696.94;4964562;28;20439;-79
2020/12/22 06:56:47;;;;;;;1.17;0.10;;;;;;;11.99;100.00;99699.25;4974773;28;20441;-79
2020/12/22 06:59:38;;;;;;;1.27;0.10;;;;;;;12.08;100.00;99705.00;4954343;28;20495;-79
2020/12/22 07:02:04;;;;;;;1.90;0.20;;;;;;;12.07;100.00;99706.19;4971204;28;20458;-79
2020/12/22 07:04:39;;;;;;;1.30;0.10;;;;;;;12.11;100.00;99711.56;4982267;28;20445;-79
2020/12/22 07:07:05;;;;;;;1.20;0.10;;;;;;;12.04;100.00;99717.75;4960293;28;20446;-79
2020/12/22 07:09:31;;;;;;;1.23;0.10;;;;;;;12.12;100.00;99719.28;4946716;28;20460;-79
2020/12/22 07:12:08;;;;;;;1.20;0.20;;;;;;;12.19;100.00;99719.28;4941255;28;20491;-78
2020/12/22 07:14:39;;;;;;;1.10;0.10;;;;;;;12.14;100.00;99733.16;4979764;28;20268;-79
2020/12/22 07:17:05;;;;;;;1.10;0.10;;;;;;;12.17;100.00;99740.50;4958945;28;20518;-80
2020/12/22 07:19:35;;;;;;;1.53;0.10;;;;;;;12.32;100.00;99742.00;4969952;28;21237;-80
2020/12/22 07:22:05;;;;;;;1.20;0.10;;;;;;;12.27;100.00;99736.25;4975455;28;20437;-80
2020/12/22 07:24:36;;;;;;;1.00;0.10;;;;;;;12.29;100.00;99750.88;4964828;28;20480;-79
2020/12/22 07:27:23;;;;;;;1.10;0.10;;;;;;;12.30;100.00;99747.03;4974936;28;20445;-79
2020/12/22 07:29:48;;;;;;;1.30;0.10;;;;;;;12.25;100.00;99743.94;4895142;29;21203;-79
2020/12/22 07:32:14;;;;;;;1.10;0.10;;;;;;;12.28;100.00;99746.63;4896078;29;20441;-78
2020/12/22 07:34:40;;;;;;;1.40;0.20;;;;;;;12.20;100.00;99755.91;4897682;29;20242;-79
2020/12/22 07:37:11;;;;;;;1.10;0.10;;;;;;;12.24;100.00;99750.50;4895198;29;20538;-79
2020/12/22 07:39:39;;;;;;;1.20;0.10;;;;;;;12.26;100.00;99759.75;4893714;29;20918;-78
2020/12/22 07:42:13;;;;;;;1.00;0.10;;;;;;;12.32;100.00;99763.59;4894412;29;20439;-79
2020/12/22 07:44:41;;;;;;;1.10;0.10;;;;;;;12.27;100.00;99763.97;4895259;29;20479;-78
2020/12/22 07:47:08;;;;;;;1.10;0.10;;;;;;;12.38;100.00;99769.38;4892851;29;20543;-78
2020/12/22 07:49:34;;;;;;;1.10;0.10;;;;;;;12.42;100.00;99770.16;4892932;29;20975;-78
2020/12/22 07:52:00;;;;;;;1.10;0.10;;;;;;;12.36;100.00;99772.47;4892910;29;20460;-78
2020/12/22 07:54:26;;;;;;;1.10;0.10;;;;;;;12.49;100.00;99770.91;4877150;29;20495;-78
2020/12/22 07:56:57;;;;;;;1.10;0.10;;;;;;;12.54;100.00;99784.00;4860372;29;20187;-78
2020/12/22 07:59:23;;;;;;;1.20;0.10;;;;;;;12.44;100.00;99790.22;4889275;29;20439;-78
2020/12/22 08:01:50;;;;;;;1.20;0.10;;;;;;;12.46;100.00;99793.28;4887384;29;20500;-79
2020/12/22 08:04:26;;;;;;;1.00;0.10;;;;;;;12.32;100.00;99790.59;4893213;29;20465;-79
2020/12/22 08:06:57;;;;;;;1.20;0.10;;;;;;;12.44;100.00;99794.84;4916731;28;20441;-79
2020/12/22 08:09:31;;;;;;;1.30;0.10;;;;;;;12.38;100.00;99796.38;4971273;28;20465;-78
2020/12/22 08:12:03;;;;;;;1.00;0.10;;;;;;;12.58;100.00;99792.88;4946031;28;20480;-78
2020/12/22 08:14:35;;;;;;;1.10;0.10;;;;;;;12.50;100.00;99810.25;4972745;28;20805;-78
2020/12/22 08:17:02;;;;;;;1.10;0.10;;;;;;;12.52;100.00;99799.06;4973908;28;20814;-78
2020/12/22 08:19:37;;;;;;;1.30;0.13;;;;;;;12.43;100.00;99801.38;4956460;28;20516;-79
2020/12/22 08:22:06;;;;;;;1.30;0.10;;;;;;;12.68;100.00;99810.22;4968040;28;20455;-79
2020/12/22 08:24:36;;;;;;;1.20;0.20;;;;;;;12.58;100.00;99809.06;4956327;28;21023;-79
2020/12/22 08:27:04;;;;;;;1.00;0.10;;;;;;;12.70;100.00;99816.78;4954826;28;20549;-79
2020/12/22 08:29:29;;;;;;;1.00;0.00;;;;;;;12.66;100.00;99812.53;4956037;28;20460;-79
2020/12/22 08:31:58;;;;;;;1.00;0.10;;;;;;;12.57;100.00;99815.66;4975534;28;20948;-78
2020/12/22 08:34:24;;;;;;;1.10;0.10;;;;;;;12.64;100.00;99806.75;4957320;28;20216;-78
2020/12/22 08:36:50;;;;;;;1.20;0.10;;;;;;;12.72;100.00;99821.03;4963207;28;20476;-79
2020/12/22 08:39:21;;;;;;;1.00;0.10;;;;;;;12.70;100.00;99821.41;4971028;28;20195;-79
2020/12/22 08:41:49;;;;;;;1.10;0.10;;;;;;;12.63;100.00;99829.53;4972779;28;20177;-79
2020/12/22 08:44:16;;;;;;;1.00;0.10;;;;;;;12.61;100.00;99827.22;4955340;28;20503;-80
2020/12/22 08:46:42;;;;;;;1.00;0.10;;;;;;;12.60;100.00;99831.06;4957962;28;20437;-79
2020/12/22 08:49:16;;;;;;;1.00;0.10;;;;;;;12.72;100.00;99839.94;4974530;28;20469;-80
2020/12/22 08:51:43;;;;;;;1.00;0.10;;;;;;;12.63;100.00;99830.31;4971701;28;20476;-80
2020/12/22 08:54:09;;;;;;;1.00;0.10;;;;;;;12.83;100.00;99838.75;4974665;28;20949;-80
2020/12/22 08:56:37;;;;;;;1.00;0.00;;;;;;;12.81;100.00;99838.38;4975235;28;21111;-79
2020/12/22 08:59:10;;;;;;;1.00;0.10;;;;;;;12.82;100.00;99849.94;4958682;28;20417;-80
2020/12/22 09:01:46;;;;;;;1.00;0.10;;;;;;;13.04;100.00;99852.25;4960263;28;20522;-79
2020/12/22 09:04:14;;;;;;;1.10;0.10;;;;;;;13.06;100.00;99851.84;4965414;28;20460;-82
2020/12/22 09:06:47;;;;;;;1.10;0.10;;;;;;;12.99;100.00;99868.06;4972941;28;20554;-79
2020/12/22 09:09:16;;;;;;;1.00;0.10;;;;;;;13.09;100.00;99870.75;4963001;28;20468;-80
2020/12/22 09:11:42;;;;;;;1.00;0.10;;;;;;;12.90;100.00;99870.38;4976157;28;20453;-80
2020/12/22 09:14:13;;;;;;;1.00;0.10;;;;;;;12.93;100.00;99881.19;4959954;28;20524;-81
2020/12/22 09:16:51;;;;;;;1.40;0.20;;;;;;;12.85;100.00;99878.91;4979872;28;20476;-81
2020/12/22 09:19:20;;;;;;;1.10;0.10;;;;;;;13.02;100.00;99878.09;4978335;28;20441;-81
2020/12/22 09:21:45;;;;;;;1.00;0.00;;;;;;;12.90;100.00;99883.91;4960944;28;20457;-80
2020/12/22 09:24:18;;;;;;;1.00;0.10;;;;;;;12.86;100.00;99891.22;4959292;28;20444;-79
2020/12/22 09:26:57;;;;;;;1.00;0.10;;;;;;;12.90;100.00;99889.31;4980033;28;20186;-80
2020/12/22 09:29:23;;;;;;;1.00;0.00;;;;;;;12.99;100.00;99885.03;4977305;28;20539;-80
2020/12/22 09:31:49;;;;;;;1.00;0.00;;;;;;;12.75;100.00;99895.91;4978603;28;20442;-79
2020/12/22 09:34:15;;;;;;;1.00;0.10;;;;;;;12.93;100.00;99897.41;4979013;28;20447;-80
2020/12/22 09:36:41;;;;;;;1.00;0.10;;;;;;;12.94;100.00;99890.84;4959701;28;20424;-81
2020/12/22 09:39:07;;;;;;;1.00;0.00;;;;;;;12.97;100.00;99903.56;4973735;28;20181;-80
2020/12/22 09:41:40;;;;;;;1.00;0.10;;;;;;;12.70;100.00;99900.53;4974510;28;20440;-81
2020/12/22 09:44:06;;;;;;;1.00;0.10;;;;;;;12.97;100.00;99903.56;4961438;28;20185;-78
2020/12/22 09:46:31;;;;;;;1.10;0.10;;;;;;;13.06;100.00;99897.81;4978084;28;20811;-77
2020/12/22 09:48:58;;;;;;;1.00;0.10;;;;;;;12.88;100.00;99911.31;4984245;28;20194;-78
2020/12/22 09:51:23;;;;;;;1.10;0.10;;;;;;;13.03;100.00;99902.06;4973506;28;20194;-78
2020/12/22 09:53:50;;;;;;;1.10;0.10;;;;;;;13.10;100.00;99912.09;4973250;28;20456;-79
2020/12/22 09:56:18;;;;;;;1.00;0.10;;;;;;;12.96;100.00;99909.38;4970834;28;20223;-79
2020/12/22 09:58:44;;;;;;;1.00;0.10;;;;;;;12.90;100.00;99916.31;4971165;28;20941;-79
2020/12/22 10:01:09;;;;;;;1.10;0.10;;;;;;;13.00;100.00;99905.50;4971814;28;20451;-80
2020/12/22 10:03:35;;;;;;;1.00;0.10;;;;;;;13.09;100.00;99924.06;4957488;28;20178;-79
2020/12/22 10:06:00;;;;;;;1.10;0.10;;;;;;;13.10;100.00;99912.09;4956482;28;20226;-78
2020/12/22 10:08:26;;;;;;;1.20;0.10;;;;;;;13.13;100.00;99916.69;4973654;28;20220;-79
2020/12/22 10:10:51;;;;;;;1.10;0.10;;;;;;;13.17;100.00;99907.44;4972766;28;20669;-79
2020/12/22 10:13:17;;;;;;;1.03;0.10;;;;;;;12.99;100.00;99917.47;4955959;28;20193;-79
2020/12/22 10:15:44;;;;;;;1.03;0.07;;;;;;;13.02;100.00;99905.91;4970298;28;20291;-78
2020/12/22 10:18:09;;;;;;;1.10;0.10;;;;;;;13.16;100.00;99907.84;4943075;28;20182;-80
2020/12/22 10:20:36;;;;;;;1.00;0.10;;;;;;;13.09;100.00;99914.00;4960035;28;20438;-80
2020/12/22 10:23:03;;;;;;;1.00;0.10;;;;;;;13.06;100.00;99912.09;4977802;28;20212;-80
2020/12/22 10:25:29;;;;;;;1.00;0.10;;;;;;;12.94;100.00;99909.00;4976280;28;20461;-79
2020/12/22 10:27:54;;;;;;;1.00;0.00;;;;;;;13.02;100.00;99899.72;4978536;28;20793;-79
2020/12/22 10:30:20;;;;;;;1.10;0.10;;;;;;;12.95;100.00;99911.28;4974574;28;20582;-80
2020/12/22 10:32:47;;;;;;;1.10;0.10;;;;;;;12.87;100.00;99909.00;4974819;28;20190;-81
2020/12/22 10:35:14;;;;;;;1.10;0.10;;;;;;;13.05;100.00;99902.44;4975202;28;20344;-78
2020/12/22 10:37:40;;;;;;;1.00;0.10;;;;;;;12.96;100.00;99912.06;4974531;28;20451;-79
2020/12/22 10:40:05;;;;;;;1.60;0.10;;;;;;;13.10;100.00;99902.06;4972328;28;20537;-80
2020/12/22 10:42:31;;;;;;;1.00;0.10;;;;;;;13.09;100.00;99913.22;4974962;28;20247;-78
2020/12/22 10:44:56;;;;;;;1.00;0.00;;;;;;;13.21;100.00;99915.53;4956443;28;20249;-78
2020/12/22 10:47:22;;;;;;;1.00;0.10;;;;;;;13.16;100.00;99913.25;4953349;28;20186;-78
2020/12/22 10:49:48;;;;;;;1.10;0.10;;;;;;;13.04;100.00;99916.34;4971695;28;20202;-80
2020/12/22 10:52:14;;;;;;;1.00;0.10;;;;;;;13.16;100.00;99910.53;4969737;28;20196;-78
2020/12/22 10:54:40;;;;;;;1.10;0.10;;;;;;;13.05;100.00;99936.78;4972893;28;20504;-78
2020/12/22 10:57:05;;;;;;;1.00;0.10;;;;;;;13.20;100.00;99922.13;4968237;28;20978;-78
2020/12/22 10:59:31;;;;;;;1.10;0.10;;;;;;;13.29;100.00;99931.34;4953188;28;20197;-79
2020/12/22 11:01:58;;;;;;;1.00;0.00;;;;;;;13.49;100.00;99943.25;4972256;28;20200;-79
2020/12/22 11:04:24;;;;;;;1.00;0.10;;;;;;;13.46;100.00;99957.59;4949625;28;20240;-78
2020/12/22 11:07:13;;;;;;;1.00;0.07;;;;;;;13.44;100.00;99959.91;4974240;28;20437;-81
2020/12/22 11:09:38;;;;;;;1.00;0.00;;;;;;;13.51;100.00;99986.94;4971190;28;20465;-78
2020/12/22 11:12:04;;;;;;;1.00;0.10;;;;;;;13.46;100.00;100000.09;4954169;28;20461;-77
2020/12/22 11:14:29;;;;;;;1.10;0.10;;;;;;;13.51;100.00;100008.56;4949991;28;20840;-78
2020/12/22 11:16:55;;;;;;;1.00;0.00;;;;;;;13.28;100.00;100012.84;4971787;28;20195;-78
2020/12/22 11:19:21;;;;;;;1.00;0.00;;;;;;;13.36;100.00;100027.91;4969712;28;20201;-79
2020/12/22 11:21:46;;;;;;;1.00;0.00;;;;;;;13.31;100.00;100028.31;4971098;28;20175;-80
2020/12/22 11:24:12;;;;;;;1.00;0.00;;;;;;;13.29;100.00;100042.22;4973209;28;20182;-79
2020/12/22 11:26:37;;;;;;;1.10;0.10;;;;;;;13.31;100.00;100048.03;4946778;28;20209;-78
2020/12/22 11:29:04;;;;;;;1.00;0.10;;;;;;;13.27;100.00;100052.66;4972761;28;20266;-79